createdAt,value
2024-01-07T00:00:53.631Z,-1.10
2024-01-07T00:03:21.773Z,-1.13
2024-01-07T00:05:49.845Z,-1.17
2024-01-07T00:08:19.285Z,-1.14
2024-01-07T00:10:47.395Z,-1.09
2024-01-07T00:13:15.500Z,-1.11
2024-01-07T00:15:44.441Z,-1.26
2024-01-07T00:18:12.548Z,-1.21
2024-01-07T00:20:43.453Z,-1.19
2024-01-07T00:23:12.470Z,-1.26
2024-01-07T00:25:41.796Z,-1.45
2024-01-07T00:28:09.669Z,-1.42
2024-01-07T00:30:37.965Z,-1.34
2024-01-07T00:33:06.551Z,-1.34
2024-01-07T00:35:34.611Z,-1.47
2024-01-07T00:38:02.629Z,-1.38
2024-01-07T00:40:30.736Z,-1.58
2024-01-07T00:43:00.095Z,-1.46
2024-01-07T00:45:28.471Z,-1.39
2024-01-07T00:47:57.035Z,-1.45
2024-01-07T00:50:25.073Z,-1.45
2024-01-07T00:52:53.112Z,-1.59
2024-01-07T00:55:23.443Z,-1.57
2024-01-07T00:57:50.682Z,-1.55
2024-01-07T01:00:22.044Z,-1.55
2024-01-07T01:02:50.199Z,-1.59
2024-01-07T01:05:18.558Z,-1.55
2024-01-07T01:07:46.541Z,-1.63
2024-01-07T01:10:17.891Z,-1.75
2024-01-07T01:12:46.010Z,-1.65
2024-01-07T01:15:14.139Z,-1.69
2024-01-07T01:17:43.530Z,-1.76
2024-01-07T01:20:13.082Z,-1.83
2024-01-07T01:22:41.074Z,-1.93
2024-01-07T01:25:09.864Z,-1.89
2024-01-07T01:27:38.043Z,-1.97
2024-01-07T01:30:07.604Z,-2.01
2024-01-07T01:32:35.718Z,-2.04
2024-01-07T01:35:07.134Z,-2.08
2024-01-07T01:37:35.104Z,-2.16
2024-01-07T01:40:03.310Z,-2.19
2024-01-07T01:42:31.426Z,-2.11
2024-01-07T01:45:02.522Z,-2.15
2024-01-07T01:47:32.176Z,-2.28
2024-01-07T01:50:01.177Z,-2.29
2024-01-07T01:52:31.100Z,-2.25
2024-01-07T01:55:00.186Z,-2.28
2024-01-07T01:57:35.873Z,-2.25
2024-01-07T02:00:06.339Z,-2.31
2024-01-07T02:02:36.010Z,-2.29
2024-01-07T02:05:05.065Z,-2.39
2024-01-07T02:07:34.935Z,-2.38
2024-01-07T02:10:05.360Z,-2.29
2024-01-07T02:12:33.376Z,-2.40
2024-01-07T02:15:01.347Z,-2.38
2024-01-07T02:17:29.568Z,-2.49
2024-01-07T02:19:57.841Z,-2.56
2024-01-07T02:22:25.875Z,-2.53
2024-01-07T02:24:55.358Z,-2.41
2024-01-07T02:27:23.470Z,-2.35
2024-01-07T02:29:51.686Z,-2.33
2024-01-07T02:32:19.665Z,-2.40
2024-01-07T02:34:48.196Z,-2.41
2024-01-07T02:37:16.258Z,-2.37
2024-01-07T02:39:50.211Z,-2.33
2024-01-07T02:42:25.727Z,-2.53
2024-01-07T02:44:53.741Z,-2.45
2024-01-07T02:47:21.780Z,-2.53
2024-01-07T02:49:49.937Z,-2.62
2024-01-07T02:52:17.960Z,-2.69
2024-01-07T02:54:45.989Z,-2.58
2024-01-07T02:57:14.034Z,-2.71
2024-01-07T02:59:43.446Z,-2.76
2024-01-07T03:02:11.485Z,-2.82
2024-01-07T03:04:39.515Z,-2.71
2024-01-07T03:07:07.928Z,-2.78
2024-01-07T03:09:36.134Z,-2.70
2024-01-07T03:12:04.612Z,-2.84
2024-01-07T03:14:32.558Z,-2.79
2024-01-07T03:17:02.017Z,-2.78
2024-01-07T03:19:30.185Z,-2.75
2024-01-07T03:21:59.094Z,-2.79
2024-01-07T03:24:27.272Z,-2.89
2024-01-07T03:26:55.440Z,-2.84
2024-01-07T03:29:23.406Z,-2.83
2024-01-07T03:31:51.981Z,-2.78
2024-01-07T03:34:21.507Z,-2.80
2024-01-07T03:36:49.597Z,-2.80
2024-01-07T03:39:17.547Z,-2.79
2024-01-07T03:41:45.521Z,-2.82
2024-01-07T03:44:13.658Z,-2.84
2024-01-07T03:46:41.962Z,-2.84
2024-01-07T03:49:09.929Z,-2.83
2024-01-07T03:51:39.504Z,-2.82
2024-01-07T03:54:07.834Z,-2.88
2024-01-07T03:56:36.063Z,-2.90
2024-01-07T03:59:04.376Z,-2.94
2024-01-07T04:01:32.403Z,-2.97
2024-01-07T04:04:00.526Z,-2.88
2024-01-07T04:06:28.720Z,-2.78
2024-01-07T04:08:58.088Z,-2.67
2024-01-07T04:11:26.115Z,-2.69
2024-01-07T04:13:54.492Z,-2.77
2024-01-07T04:16:22.811Z,-2.80
2024-01-07T04:18:53.824Z,-2.85
2024-01-07T04:21:22.576Z,-2.83
2024-01-07T04:23:50.692Z,-2.78
2024-01-07T04:26:20.056Z,-2.60
2024-01-07T04:28:48.250Z,-2.40
2024-01-07T04:31:16.583Z,-2.65
2024-01-07T04:33:44.796Z,-2.36
2024-01-07T04:36:12.870Z,-2.33
2024-01-07T04:38:40.912Z,-2.30
2024-01-07T04:41:09.041Z,-2.32
2024-01-07T04:43:39.037Z,-2.24
2024-01-07T04:46:07.643Z,-2.19
2024-01-07T04:48:35.983Z,-2.21
2024-01-07T04:51:04.172Z,-2.16
2024-01-07T04:53:32.189Z,-2.27
2024-01-07T04:56:00.214Z,-2.11
2024-01-07T04:58:28.252Z,-2.23
2024-01-07T05:00:57.767Z,-2.25
2024-01-07T05:03:25.848Z,-2.18
2024-01-07T05:05:54.042Z,-2.13
2024-01-07T05:08:24.963Z,-2.01
2024-01-07T05:10:54.561Z,-1.97
2024-01-07T05:13:22.734Z,-2.13
2024-01-07T05:15:54.793Z,-1.98
2024-01-07T05:18:25.889Z,-1.95
2024-01-07T05:20:54.472Z,-1.94
2024-01-07T05:23:22.612Z,-1.98
2024-01-07T05:25:50.768Z,-1.90
2024-01-07T05:28:20.284Z,-2.01
2024-01-07T05:30:48.757Z,-1.98
2024-01-07T05:33:16.985Z,-2.12
2024-01-07T05:35:46.520Z,-2.15
2024-01-07T05:38:14.763Z,-1.88
2024-01-07T05:40:42.967Z,-1.87
2024-01-07T05:43:11.138Z,-1.84
2024-01-07T05:45:39.385Z,-1.83
2024-01-07T05:48:09.325Z,-1.81
2024-01-07T05:50:37.434Z,-1.78
2024-01-07T05:53:06.848Z,-1.94
2024-01-07T05:55:34.973Z,-1.95
2024-01-07T05:58:03.078Z,-1.94
2024-01-07T06:00:31.212Z,-1.71
2024-01-07T06:02:59.571Z,-1.67
2024-01-07T06:05:28.536Z,-1.56
2024-01-07T06:07:56.629Z,-1.58
2024-01-07T06:10:26.205Z,-1.58
2024-01-07T06:12:54.345Z,-1.63
2024-01-07T06:15:22.435Z,-1.52
2024-01-07T06:17:50.830Z,-1.57
2024-01-07T06:20:18.957Z,-1.47
2024-01-07T06:22:46.957Z,-1.47
2024-01-07T06:25:15.517Z,-1.36
2024-01-07T06:27:45.345Z,-1.16
2024-01-07T06:30:14.694Z,-1.14
2024-01-07T06:32:42.869Z,-1.36
2024-01-07T06:35:11.099Z,-1.29
2024-01-07T06:37:39.104Z,-1.32
2024-01-07T06:40:08.479Z,-1.30
2024-01-07T06:42:36.528Z,-1.23
2024-01-07T06:45:07.557Z,-1.33
2024-01-07T06:47:35.600Z,-1.48
2024-01-07T06:50:03.864Z,-1.38
2024-01-07T06:52:32.306Z,-1.30
2024-01-07T06:55:00.451Z,-1.33
2024-01-07T06:57:28.710Z,-1.33
2024-01-07T06:59:56.904Z,-1.45
2024-01-07T07:02:26.403Z,-1.44
2024-01-07T07:04:54.717Z,-1.34
2024-01-07T07:07:22.868Z,-1.49
2024-01-07T07:09:51.443Z,-1.33
2024-01-07T07:12:19.603Z,-1.28
2024-01-07T07:14:47.874Z,-1.19
2024-01-07T07:17:16.230Z,-1.22
2024-01-07T07:19:46.212Z,-1.27
2024-01-07T07:22:14.839Z,-1.46
2024-01-07T07:24:43.874Z,-1.52
2024-01-07T07:27:12.306Z,-1.54
2024-01-07T07:29:40.452Z,-1.54
2024-01-07T07:32:09.431Z,-1.39
2024-01-07T07:34:38.148Z,-1.30
2024-01-07T07:37:07.967Z,-1.25
2024-01-07T07:39:36.195Z,-1.32
2024-01-07T07:42:04.627Z,-1.26
2024-01-07T07:44:33.171Z,-1.32
2024-01-07T07:47:01.894Z,-1.20
2024-01-07T07:49:30.054Z,-1.13
2024-01-07T07:51:59.258Z,-1.08
2024-01-07T07:54:28.701Z,-1.00
2024-01-07T07:56:56.889Z,-1.22
2024-01-07T07:59:25.281Z,-1.14
2024-01-07T08:01:53.603Z,-1.27
2024-01-07T08:04:21.704Z,-1.16
2024-01-07T08:06:49.832Z,-0.98
2024-01-07T08:09:17.942Z,-1.02
2024-01-07T08:11:47.426Z,-1.08
2024-01-07T08:14:15.630Z,-1.04
2024-01-07T08:16:43.916Z,-1.00
2024-01-07T08:19:12.215Z,-0.80
2024-01-07T08:21:40.427Z,-0.76
2024-01-07T08:24:08.748Z,-0.76
2024-01-07T08:26:36.775Z,-0.65
2024-01-07T08:29:06.550Z,-0.88
2024-01-07T08:31:35.195Z,-0.88
2024-01-07T08:34:03.682Z,-0.82
2024-01-07T08:36:31.806Z,-0.71
2024-01-07T08:38:59.984Z,-0.73
2024-01-07T08:41:28.236Z,-0.66
2024-01-07T08:43:56.576Z,-0.47
2024-01-07T08:46:26.140Z,-0.55
2024-01-07T08:48:54.369Z,-0.59
2024-01-07T08:51:22.546Z,-0.69
2024-01-07T08:53:50.979Z,-0.59
2024-01-07T08:56:19.157Z,-0.63
2024-01-07T08:58:47.315Z,-0.27
2024-01-07T09:01:15.521Z,-0.39
2024-01-07T09:03:45.083Z,-0.68
2024-01-07T09:06:13.141Z,-0.68
2024-01-07T09:08:41.185Z,-0.74
2024-01-07T09:13:41.150Z,-0.43
2024-01-07T09:16:13.075Z,-0.59
2024-01-07T09:18:42.201Z,-0.70
2024-01-07T09:21:12.585Z,-0.69
2024-01-07T09:23:40.888Z,-0.74
2024-01-07T09:26:09.331Z,-0.80
2024-01-07T09:28:38.868Z,-0.61
2024-01-07T09:31:07.704Z,-0.36
2024-01-07T09:33:36.314Z,-0.44
2024-01-07T09:36:10.857Z,-0.48
2024-01-07T09:38:50.301Z,-0.39
2024-01-07T09:41:18.812Z,-0.56
2024-01-07T09:43:47.450Z,-0.33
2024-01-07T09:46:16.711Z,-0.14
2024-01-07T09:48:45.203Z,-0.20
2024-01-07T09:51:14.513Z,-0.35
2024-01-07T09:53:46.874Z,-0.32
2024-01-07T09:56:28.544Z,-0.55
2024-01-07T09:58:56.946Z,-0.51
2024-01-07T10:01:27.159Z,-0.28
2024-01-07T10:03:55.675Z,-0.22
2024-01-07T10:06:24.007Z,-0.14
2024-01-07T10:08:52.827Z,-0.01
2024-01-07T10:11:24.660Z,-0.04
2024-01-07T10:13:53.368Z,-0.05
2024-01-07T10:16:21.999Z,-0.03
2024-01-07T10:18:50.364Z,0.12
2024-01-07T10:21:18.553Z,0.14
2024-01-07T10:23:46.751Z,0.02
2024-01-07T10:26:23.480Z,0.19
2024-01-07T10:28:57.273Z,-0.12
2024-01-07T10:31:28.124Z,0.00
2024-01-07T10:33:59.957Z,-0.18
2024-01-07T10:36:28.478Z,0.29
2024-01-07T10:38:57.161Z,0.30
2024-01-07T10:41:29.303Z,0.27
2024-01-07T10:43:59.039Z,0.50
2024-01-07T10:46:32.002Z,0.39
2024-01-07T10:49:09.835Z,0.43
2024-01-07T10:51:39.010Z,0.68
2024-01-07T10:54:09.108Z,0.46
2024-01-07T10:56:47.572Z,0.58
2024-01-07T10:59:22.618Z,0.40
2024-01-07T11:01:51.058Z,0.40
2024-01-07T11:04:30.616Z,0.23
2024-01-07T11:07:14.697Z,0.22
2024-01-07T11:10:00.389Z,0.53
2024-01-07T11:12:30.477Z,0.46
2024-01-07T11:15:00.090Z,0.69
2024-01-07T11:17:46.953Z,0.65
2024-01-07T11:20:28.004Z,0.71
2024-01-07T11:23:30.070Z,0.53
2024-01-07T11:26:00.205Z,0.53
2024-01-07T11:28:53.892Z,0.69
2024-01-07T11:31:48.919Z,0.68
2024-01-07T11:34:48.818Z,0.85
2024-01-07T11:37:17.598Z,0.61
2024-01-07T11:39:46.473Z,0.76
2024-01-07T11:42:15.289Z,0.54
2024-01-07T11:44:49.734Z,0.86
2024-01-07T11:47:25.308Z,0.87
2024-01-07T11:49:54.814Z,0.87
2024-01-07T11:52:23.194Z,0.81
2024-01-07T11:54:51.884Z,0.82
2024-01-07T11:57:20.385Z,0.78
2024-01-07T11:59:48.907Z,0.58
2024-01-07T12:02:18.508Z,0.47
2024-01-07T12:04:49.192Z,0.57
2024-01-07T12:07:19.081Z,0.62
2024-01-07T12:09:48.508Z,0.72
2024-01-07T12:12:17.153Z,0.83
2024-01-07T12:14:45.815Z,0.89
2024-01-07T12:17:14.368Z,0.96
2024-01-07T12:19:43.412Z,1.01
2024-01-07T12:22:13.353Z,0.97
2024-01-07T12:24:41.667Z,0.91
2024-01-07T12:27:10.385Z,0.72
2024-01-07T12:29:38.499Z,0.84
2024-01-07T12:32:10.607Z,0.99
2024-01-07T12:34:39.346Z,0.82
2024-01-07T12:37:07.593Z,0.95
2024-01-07T12:39:38.083Z,1.03
2024-01-07T12:42:08.291Z,1.05
2024-01-07T12:44:38.336Z,0.90
2024-01-07T12:47:06.722Z,1.07
2024-01-07T12:49:35.041Z,0.92
2024-01-07T12:52:03.428Z,0.92
2024-01-07T12:54:31.650Z,1.06
2024-01-07T12:57:01.674Z,1.08
2024-01-07T12:59:29.813Z,1.30
2024-01-07T13:01:58.365Z,1.18
2024-01-07T13:04:26.818Z,1.05
2024-01-07T13:06:55.379Z,1.24
2024-01-07T13:09:23.655Z,0.96
2024-01-07T13:11:52.597Z,1.10
2024-01-07T13:14:22.135Z,0.99
2024-01-07T13:16:50.574Z,1.00
2024-01-07T13:19:19.503Z,1.09
2024-01-07T13:22:26.691Z,1.16
2024-01-07T13:25:23.073Z,0.64
2024-01-07T13:31:16.317Z,0.74
2024-01-07T13:34:52.196Z,0.40
2024-01-07T13:41:08.691Z,0.52
2024-01-07T13:43:38.449Z,0.44
2024-01-07T13:46:08.417Z,0.46
2024-01-07T13:52:16.493Z,0.47
2024-01-07T13:54:49.051Z,0.67
2024-01-07T13:57:34.064Z,0.65
2024-01-07T14:00:10.624Z,0.47
2024-01-07T14:02:59.277Z,0.48
2024-01-07T14:09:06.527Z,0.43
2024-01-07T14:11:53.291Z,0.49
2024-01-07T14:14:23.924Z,0.72
2024-01-07T14:17:04.640Z,0.57
2024-01-07T14:19:43.802Z,0.52
2024-01-07T14:22:16.974Z,0.53
2024-01-07T14:25:09.176Z,0.70
2024-01-07T14:27:41.806Z,0.47
2024-01-07T14:30:11.492Z,0.48
2024-01-07T14:32:56.922Z,0.41
2024-01-07T14:35:37.334Z,0.81
2024-01-07T14:38:09.129Z,0.54
2024-01-07T14:40:37.882Z,0.69
2024-01-07T14:43:06.248Z,0.47
2024-01-07T14:45:35.070Z,0.50
2024-01-07T14:48:03.574Z,0.38
2024-01-07T14:50:39.690Z,0.64
2024-01-07T14:53:10.149Z,0.65
2024-01-07T14:55:38.384Z,0.65
2024-01-07T14:58:06.689Z,0.45
2024-01-07T15:00:35.618Z,0.62
2024-01-07T15:03:04.961Z,0.33
2024-01-07T15:05:44.238Z,0.56
2024-01-07T15:08:41.708Z,0.64
2024-01-07T15:11:10.161Z,0.36
2024-01-07T15:13:40.489Z,0.43
2024-01-07T15:16:09.000Z,0.37
2024-01-07T15:18:38.684Z,0.41
2024-01-07T15:21:09.917Z,0.57
2024-01-07T15:23:37.965Z,0.48
2024-01-07T15:26:06.813Z,0.44
2024-01-07T15:28:35.484Z,0.49
2024-01-07T15:31:04.743Z,0.33
2024-01-07T15:33:33.008Z,0.39
2024-01-07T15:36:01.146Z,0.30
2024-01-07T15:38:30.590Z,0.34
2024-01-07T15:40:58.400Z,0.39
2024-01-07T15:43:26.420Z,0.57
2024-01-07T15:45:54.538Z,0.39
2024-01-07T15:48:22.612Z,0.47
2024-01-07T15:50:50.757Z,0.48
2024-01-07T15:53:18.828Z,0.31
2024-01-07T15:55:48.298Z,0.38
2024-01-07T15:58:17.927Z,0.38
2024-01-07T16:00:46.227Z,0.41
2024-01-07T16:03:14.767Z,0.40
2024-01-07T16:05:42.856Z,0.27
2024-01-07T16:08:11.027Z,0.16
2024-01-07T16:10:39.094Z,0.20
2024-01-07T16:13:08.531Z,0.28
2024-01-07T16:15:36.758Z,0.13
2024-01-07T16:18:05.950Z,0.18
2024-01-07T16:20:34.618Z,0.26
2024-01-07T16:23:03.065Z,0.20
2024-01-07T16:25:31.346Z,0.16
2024-01-07T16:28:00.316Z,0.05
2024-01-07T16:30:30.105Z,0.14
2024-01-07T16:32:58.318Z,0.06
2024-01-07T16:35:26.454Z,0.18
2024-01-07T16:37:54.504Z,0.26
2024-01-07T16:40:22.617Z,0.41
2024-01-07T16:42:50.873Z,0.42
2024-01-07T16:45:20.657Z,0.37
2024-01-07T16:47:50.109Z,0.53
2024-01-07T16:50:23.487Z,0.57
2024-01-07T16:52:54.621Z,0.63
2024-01-07T16:55:23.680Z,0.73
2024-01-07T16:57:52.086Z,0.58
2024-01-07T17:00:21.585Z,0.44
2024-01-07T17:02:52.546Z,0.50
2024-01-07T17:05:21.475Z,0.55
2024-01-07T17:07:49.867Z,0.52
2024-01-07T17:10:18.193Z,0.33
2024-01-07T17:12:46.924Z,0.33
2024-01-07T17:15:15.749Z,0.09
2024-01-07T17:17:44.322Z,0.16
2024-01-07T17:20:14.414Z,0.09
2024-01-07T17:22:42.752Z,0.05
2024-01-07T17:25:10.872Z,0.09
2024-01-07T17:27:38.926Z,0.13
2024-01-07T17:30:08.599Z,0.28
2024-01-07T17:32:37.134Z,0.21
2024-01-07T17:35:06.889Z,0.28
2024-01-07T17:37:44.344Z,0.16
2024-01-07T17:40:13.931Z,0.27
2024-01-07T17:42:42.876Z,0.11
2024-01-07T17:45:12.304Z,0.06
2024-01-07T17:47:41.034Z,-0.10
2024-01-07T17:50:12.036Z,-0.05
2024-01-07T17:52:41.783Z,-0.01
2024-01-07T17:55:10.639Z,-0.12
2024-01-07T17:57:39.031Z,0.00
2024-01-07T18:00:10.929Z,-0.10
2024-01-07T18:02:40.579Z,-0.11
2024-01-07T18:05:10.225Z,-0.08
2024-01-07T18:07:38.563Z,-0.13
2024-01-07T18:10:11.944Z,-0.28
2024-01-07T18:12:40.778Z,-0.48
2024-01-07T18:15:11.070Z,-0.60
2024-01-07T18:17:43.717Z,-0.66
2024-01-07T18:20:13.266Z,-0.79
2024-01-07T18:22:41.368Z,-0.68
2024-01-07T18:25:11.763Z,-0.59
2024-01-07T18:27:40.191Z,-0.44
2024-01-07T18:30:10.076Z,-0.42
2024-01-07T18:32:40.702Z,-0.48
2024-01-07T18:35:10.226Z,-0.57
2024-01-07T18:37:40.325Z,-0.46
2024-01-07T18:40:13.889Z,-0.53
2024-01-07T18:42:41.969Z,-0.36
2024-01-07T18:45:10.949Z,-0.44
2024-01-07T18:47:39.249Z,-0.46
2024-01-07T18:50:08.595Z,-0.56
2024-01-07T18:52:36.550Z,-0.60
2024-01-07T18:55:07.518Z,-0.58
2024-01-07T18:57:37.707Z,-0.47
2024-01-07T19:00:07.748Z,-0.59
2024-01-07T19:02:36.445Z,-0.54
2024-01-07T19:05:05.430Z,-0.92
2024-01-07T19:07:34.414Z,-1.00
2024-01-07T19:10:02.950Z,-1.08
2024-01-07T19:12:31.187Z,-1.10
2024-01-07T19:15:00.708Z,-0.88
2024-01-07T19:17:29.054Z,-1.14
2024-01-07T19:19:57.386Z,-1.21
2024-01-07T19:22:26.954Z,-1.18
2024-01-07T19:24:55.126Z,-1.19
2024-01-07T19:27:24.758Z,-1.14
2024-01-07T19:29:53.057Z,-1.47
2024-01-07T19:32:22.635Z,-1.49
2024-01-07T19:34:52.530Z,-1.59
2024-01-07T19:37:21.768Z,-1.61
2024-01-07T19:39:49.637Z,-1.54
2024-01-07T19:42:17.845Z,-1.57
2024-01-07T19:44:46.116Z,-1.58
2024-01-07T19:47:14.446Z,-1.92
2024-01-07T19:49:44.253Z,-2.25
2024-01-07T19:52:12.548Z,-2.47
2024-01-07T19:54:40.841Z,-2.68
2024-01-07T19:57:09.116Z,-2.68
2024-01-07T19:59:37.831Z,-2.90
2024-01-07T20:02:06.683Z,-3.01
2024-01-07T20:04:35.288Z,-3.07
2024-01-07T20:07:05.987Z,-3.01
2024-01-07T20:09:34.154Z,-3.09
2024-01-07T20:12:02.835Z,-3.11
2024-01-07T20:14:32.638Z,-3.22
2024-01-07T20:17:01.125Z,-3.39
2024-01-07T20:19:29.450Z,-3.42
2024-01-07T20:21:57.620Z,-3.57
2024-01-07T20:24:27.233Z,-3.72
2024-01-07T20:26:55.737Z,-3.78
2024-01-07T20:29:23.997Z,-3.86
2024-01-07T20:31:52.350Z,-3.85
2024-01-07T20:34:21.580Z,-3.90
2024-01-07T20:36:50.764Z,-3.81
2024-01-07T20:39:22.387Z,-3.96
2024-01-07T20:41:51.945Z,-4.14
2024-01-07T20:44:20.064Z,-4.20
2024-01-07T20:46:48.308Z,-4.19
2024-01-07T20:49:16.519Z,-4.22
2024-01-07T20:51:44.756Z,-4.18
2024-01-07T20:54:13.014Z,-4.13
2024-01-07T20:56:42.991Z,-4.25
2024-01-07T20:59:13.374Z,-4.24
2024-01-07T21:01:41.591Z,-4.46
2024-01-07T21:04:09.820Z,-4.50
2024-01-07T21:06:40.903Z,-4.28
2024-01-07T21:09:09.185Z,-4.45
2024-01-07T21:11:37.322Z,-4.63
2024-01-07T21:14:05.602Z,-4.67
2024-01-07T21:16:35.326Z,-4.64
2024-01-07T21:19:03.772Z,-4.80
2024-01-07T21:21:32.106Z,-4.91
2024-01-07T21:24:00.292Z,-5.06
2024-01-07T21:26:31.501Z,-5.07
2024-01-07T21:29:00.297Z,-5.03
2024-01-07T21:31:29.027Z,-5.20
2024-01-07T21:33:58.816Z,-5.18
2024-01-07T21:36:27.384Z,-5.29
2024-01-07T21:38:55.490Z,-5.38
2024-01-07T21:41:23.830Z,-5.41
2024-01-07T21:43:52.241Z,-5.49
2024-01-07T21:46:20.649Z,-5.45
2024-01-07T21:48:49.385Z,-5.42
2024-01-07T21:51:18.932Z,-5.30
2024-01-07T21:53:47.283Z,-5.30
2024-01-07T21:56:15.378Z,-5.35
2024-01-07T21:58:43.436Z,-5.39
2024-01-07T22:01:11.873Z,-5.43
2024-01-07T22:03:39.992Z,-5.60
2024-01-07T22:06:08.477Z,-5.47
2024-01-07T22:08:38.281Z,-5.60
2024-01-07T22:11:10.539Z,-5.66
2024-01-07T22:13:38.631Z,-5.80
2024-01-07T22:16:12.153Z,-5.96
2024-01-07T22:18:40.464Z,-6.10
2024-01-07T22:21:17.582Z,-6.09
2024-01-07T22:23:47.651Z,-6.17
2024-01-07T22:26:16.136Z,-6.21
2024-01-07T22:28:44.847Z,-6.22
2024-01-07T22:31:13.007Z,-6.23
2024-01-07T22:33:41.739Z,-6.17
2024-01-07T22:36:10.628Z,-6.21
2024-01-07T22:38:38.819Z,-6.12
2024-01-07T22:41:08.545Z,-6.08
2024-01-07T22:43:36.780Z,-6.20
2024-01-07T22:46:05.042Z,-6.26
2024-01-07T22:48:35.784Z,-6.17
2024-01-07T22:51:04.015Z,-6.30
2024-01-07T22:53:34.525Z,-6.29
2024-01-07T22:56:04.935Z,-6.40
2024-01-07T22:58:35.612Z,-6.39
2024-01-07T23:01:03.926Z,-6.26
2024-01-07T23:03:32.014Z,-6.37
2024-01-07T23:06:00.056Z,-6.31
2024-01-07T23:08:28.416Z,-6.46
2024-01-07T23:10:56.470Z,-6.45
2024-01-07T23:13:24.487Z,-6.49
2024-01-07T23:15:53.927Z,-6.49
2024-01-07T23:18:22.185Z,-6.56
2024-01-07T23:20:50.336Z,-6.59
2024-01-07T23:23:18.471Z,-6.55
2024-01-07T23:25:46.542Z,-6.69
2024-01-07T23:28:15.304Z,-6.62
2024-01-07T23:30:43.681Z,-6.66
2024-01-07T23:33:13.433Z,-6.68
2024-01-07T23:35:50.514Z,-6.73
2024-01-07T23:38:23.021Z,-6.79
2024-01-07T23:40:51.250Z,-6.90
2024-01-07T23:43:19.355Z,-6.92
2024-01-07T23:45:47.533Z,-6.85
2024-01-07T23:48:17.069Z,-6.76
2024-01-07T23:50:45.159Z,-6.73
2024-01-07T23:53:13.445Z,-6.83
2024-01-07T23:55:41.705Z,-6.93
2024-01-07T23:58:09.877Z,-6.89
